Time;durP1;ratioP1;P1;durP2;ratioP2;P2;SDS_P1;SDS_P2;PMS_P1;PMS_P2;Temp;Humidity;BMP_temperature;BMP_pressure;BME280_temperature;BME280_humidity;BME280_pressure;Samples;Min_cycle;Max_cycle;Signal;HPM_P1;HPM_P2
2023/11/16 00:01:30;;;;;;;9.13;5.97;;;8.20;99.90;;;;;;5074960;28;20479;-58
2023/11/16 00:03:58;;;;;;;10.60;6.50;;;8.20;99.90;;;;;;5075287;28;20412;-58
2023/11/16 00:06:25;;;;;;;6.70;5.00;;;8.30;99.90;;;;;;5075821;28;20471;-58
2023/11/16 00:08:52;;;;;;;6.20;5.03;;;8.30;99.90;;;;;;5074847;28;20475;-58
2023/11/16 00:11:20;;;;;;;7.10;4.47;;;8.30;99.90;;;;;;5074897;28;20470;-57
2023/11/16 00:13:47;;;;;;;5.50;4.50;;;8.30;99.90;;;;;;5074912;28;20446;-56
2023/11/16 00:16:16;;;;;;;9.23;4.77;;;8.30;99.90;;;;;;5074892;28;20424;-57
2023/11/16 00:18:43;;;;;;;7.80;4.20;;;8.30;99.90;;;;;;5074946;28;20439;-54
2023/11/16 00:21:10;;;;;;;7.70;4.80;;;8.30;99.90;;;;;;5074227;28;20487;-58
2023/11/16 00:23:37;;;;;;;6.60;4.50;;;8.30;99.90;;;;;;5075732;28;20443;-58
2023/11/16 00:26:06;;;;;;;8.83;4.90;;;8.20;99.90;;;;;;5074660;28;20490;-58
2023/11/16 00:28:36;;;;;;;8.57;4.50;;;8.20;99.90;;;;;;5075081;28;20432;-59
2023/11/16 00:31:03;;;;;;;6.70;3.30;;;8.20;99.90;;;;;;5074651;28;20435;-56
2023/11/16 00:33:31;;;;;;;6.50;4.27;;;8.20;99.90;;;;;;5075063;28;20467;-59
2023/11/16 00:35:58;;;;;;;8.27;4.40;;;8.20;99.90;;;;;;5074645;28;20455;-58
2023/11/16 00:38:26;;;;;;;5.13;3.50;;;8.30;99.90;;;;;;5074824;28;20444;-61
2023/11/16 00:40:55;;;;;;;9.23;4.03;;;8.30;99.90;;;;;;5075055;28;20470;-60
2023/11/16 00:43:27;;;;;;;11.70;4.63;;;8.30;99.90;;;;;;5074893;28;20439;-59
2023/11/16 00:45:55;;;;;;;7.00;4.03;;;8.30;99.90;;;;;;5074326;28;20475;-58
2023/11/16 00:48:23;;;;;;;8.57;5.10;;;8.30;99.90;;;;;;5075397;28;20458;-59
2023/11/16 00:50:51;;;;;;;7.33;3.47;;;8.30;99.90;;;;;;5074664;28;20459;-59
2023/11/16 00:53:20;;;;;;;7.20;4.37;;;8.30;99.90;;;;;;5075507;28;20442;-58
2023/11/16 00:55:49;;;;;;;5.83;4.30;;;8.30;99.90;;;;;;5075218;28;20451;-58
2023/11/16 00:58:16;;;;;;;7.00;3.83;;;8.30;99.90;;;;;;5074202;28;20479;-60
2023/11/16 01:00:43;;;;;;;5.20;4.13;;;8.30;99.90;;;;;;5075311;28;20502;-59
2023/11/16 01:03:11;;;;;;;5.60;3.27;;;8.30;99.90;;;;;;5074616;28;20443;-58
2023/11/16 01:05:39;;;;;;;4.97;3.60;;;8.30;99.90;;;;;;5075243;28;20447;-59
2023/11/16 01:08:09;;;;;;;5.43;3.53;;;8.30;99.90;;;;;;5074708;28;20486;-59
2023/11/16 01:10:37;;;;;;;7.87;4.37;;;8.40;99.90;;;;;;5074659;28;20467;-56
2023/11/16 01:13:07;;;;;;;6.00;3.33;;;8.40;99.90;;;;;;5074882;28;20509;-61
2023/11/16 01:15:33;;;;;;;10.07;3.93;;;8.40;99.90;;;;;;5074397;28;20531;-58
2023/11/16 01:18:05;;;;;;;7.50;3.97;;;8.40;99.90;;;;;;5074205;28;20419;-58
2023/11/16 01:20:35;;;;;;;6.10;3.20;;;8.40;99.90;;;;;;5074630;28;20463;-58
2023/11/16 01:23:10;;;;;;;5.70;3.00;;;8.40;99.90;;;;;;5073990;28;20486;-58
2023/11/16 01:25:40;;;;;;;5.40;3.23;;;8.40;99.90;;;;;;5074050;28;20441;-61
2023/11/16 01:28:07;;;;;;;6.83;2.97;;;8.40;99.90;;;;;;5074197;28;20478;-59
2023/11/16 01:30:34;;;;;;;5.03;3.33;;;8.40;99.90;;;;;;5074935;28;20474;-60
2023/11/16 01:33:03;;;;;;;4.20;3.77;;;8.40;99.90;;;;;;5074123;28;20466;-59
2023/11/16 01:35:31;;;;;;;6.07;3.70;;;8.30;99.90;;;;;;5074164;28;20447;-57
2023/11/16 01:38:00;;;;;;;9.23;4.17;;;8.40;99.90;;;;;;5074603;28;20450;-54
2023/11/16 01:40:28;;;;;;;6.37;3.70;;;8.40;99.90;;;;;;5074282;28;20467;-58
2023/11/16 01:42:57;;;;;;;5.03;3.07;;;8.40;99.90;;;;;;5074549;28;20451;-58
2023/11/16 01:45:30;;;;;;;12.20;4.57;;;8.40;99.90;;;;;;5074637;28;20420;-59
2023/11/16 01:48:00;;;;;;;7.20;3.13;;;8.40;99.90;;;;;;5073677;28;20431;-58
2023/11/16 01:50:29;;;;;;;6.13;4.10;;;8.40;99.90;;;;;;5073760;28;20428;-59
2023/11/16 01:53:04;;;;;;;12.33;4.77;;;8.50;99.90;;;;;;5074284;28;20465;-57
2023/11/16 01:55:33;;;;;;;8.33;3.90;;;8.40;99.90;;;;;;5074838;28;20946;-61
2023/11/16 01:58:04;;;;;;;5.70;3.60;;;8.40;99.90;;;;;;5074184;28;20439;-56
2023/11/16 02:00:33;;;;;;;7.40;3.00;;;8.40;99.90;;;;;;5074202;28;20471;-61
2023/11/16 02:03:03;;;;;;;4.10;3.23;;;8.40;99.90;;;;;;5074298;28;20454;-58
2023/11/16 02:05:32;;;;;;;3.77;2.90;;;8.40;99.90;;;;;;5074302;28;20499;-58
2023/11/16 02:08:01;;;;;;;4.70;3.33;;;8.40;99.90;;;;;;5074199;28;20427;-59
2023/11/16 02:10:30;;;;;;;3.87;3.03;;;8.30;99.90;;;;;;5074658;28;20499;-58
2023/11/16 02:12:59;;;;;;;5.87;3.17;;;8.40;99.90;;;;;;5074225;28;20507;-59
2023/11/16 02:15:27;;;;;;;3.00;2.70;;;8.30;99.90;;;;;;5074339;28;20463;-54
2023/11/16 02:17:54;;;;;;;10.10;4.07;;;8.40;99.90;;;;;;5074120;28;20494;-59
2023/11/16 02:20:21;;;;;;;5.03;3.53;;;8.40;99.90;;;;;;5073160;28;20447;-57
2023/11/16 02:22:50;;;;;;;6.50;4.40;;;8.40;99.90;;;;;;5072487;28;20481;-59
2023/11/16 02:25:19;;;;;;;5.83;3.83;;;8.40;99.90;;;;;;5073505;28;20511;-58
2023/11/16 02:27:46;;;;;;;7.90;3.20;;;8.40;99.90;;;;;;5075433;28;20442;-59
2023/11/16 02:30:13;;;;;;;12.30;3.90;;;8.40;99.90;;;;;;5075685;28;20482;-59
2023/11/16 02:32:40;;;;;;;4.10;3.20;;;8.40;99.90;;;;;;5074931;28;20459;-60
2023/11/16 02:35:09;;;;;;;5.53;2.90;;;8.40;99.90;;;;;;5075667;28;20738;-56
2023/11/16 02:37:36;;;;;;;5.80;3.40;;;8.40;99.90;;;;;;5075431;28;20424;-56
2023/11/16 02:40:03;;;;;;;6.10;3.60;;;8.40;99.90;;;;;;5074879;28;20507;-57
2023/11/16 02:42:31;;;;;;;3.40;2.93;;;8.40;99.90;;;;;;5075302;28;20506;-57
2023/11/16 02:44:58;;;;;;;6.90;2.97;;;8.40;99.90;;;;;;5076636;28;20450;-58
2023/11/16 02:47:28;;;;;;;9.53;3.00;;;8.40;99.90;;;;;;5076575;28;20475;-56
2023/11/16 02:49:54;;;;;;;7.67;3.53;;;8.40;99.90;;;;;;5076906;28;20440;-60
2023/11/16 02:52:22;;;;;;;3.57;2.63;;;8.40;99.90;;;;;;5077169;28;20443;-58
2023/11/16 02:54:51;;;;;;;8.50;4.00;;;8.40;99.90;;;;;;5076676;28;20498;-57
2023/11/16 02:57:20;;;;;;;4.77;2.27;;;8.40;99.90;;;;;;5076913;28;20435;-60
2023/11/16 02:59:49;;;;;;;3.73;2.80;;;8.50;99.90;;;;;;5076759;28;20444;-57
2023/11/16 03:02:18;;;;;;;7.43;3.13;;;8.50;99.90;;;;;;5077081;28;20491;-58
2023/11/16 03:04:45;;;;;;;3.73;2.80;;;8.50;99.90;;;;;;5077129;28;20443;-60
2023/11/16 03:07:12;;;;;;;5.53;2.80;;;8.50;99.90;;;;;;5076836;28;20527;-59
2023/11/16 03:09:39;;;;;;;7.23;3.10;;;8.50;99.90;;;;;;5077031;28;20439;-60
2023/11/16 03:12:08;;;;;;;6.33;3.07;;;8.50;99.90;;;;;;5076227;28;20450;-59
2023/11/16 03:14:36;;;;;;;14.43;2.87;;;8.50;99.90;;;;;;5076687;28;20420;-59
2023/11/16 03:17:06;;;;;;;3.77;2.70;;;8.50;99.90;;;;;;5076831;28;20435;-61
2023/11/16 03:19:34;;;;;;;4.37;2.60;;;8.50;99.90;;;;;;5077089;28;20455;-58
2023/11/16 03:22:02;;;;;;;2.93;2.30;;;8.50;99.90;;;;;;5076373;28;20561;-58
2023/11/16 03:24:30;;;;;;;4.43;2.57;;;8.50;99.90;;;;;;5076154;28;20451;-56
2023/11/16 03:26:57;;;;;;;4.73;2.53;;;8.50;99.90;;;;;;5076813;28;20803;-58
2023/11/16 03:29:25;;;;;;;4.07;2.50;;;8.50;99.90;;;;;;5076586;28;20439;-56
2023/11/16 03:31:52;;;;;;;8.87;2.97;;;8.50;99.90;;;;;;5078019;28;20474;-55
2023/11/16 03:34:20;;;;;;;5.00;2.93;;;8.50;99.90;;;;;;5077706;28;20443;-58
2023/11/16 03:36:47;;;;;;;8.50;2.30;;;8.50;99.90;;;;;;5077662;28;20450;-58
2023/11/16 03:39:14;;;;;;;7.10;2.50;;;8.50;99.90;;;;;;5078099;28;20415;-58
2023/11/16 03:41:41;;;;;;;5.73;2.87;;;8.50;99.90;;;;;;5077625;28;20511;-57
2023/11/16 03:44:08;;;;;;;5.20;2.23;;;8.50;99.90;;;;;;5077853;28;20482;-57
2023/11/16 03:46:36;;;;;;;4.30;2.63;;;8.50;99.90;;;;;;5078071;28;20443;-60
2023/11/16 03:49:03;;;;;;;5.80;2.20;;;8.50;99.90;;;;;;5077880;28;20451;-55
2023/11/16 03:51:31;;;;;;;2.90;2.30;;;8.50;99.90;;;;;;5078095;28;20439;-53
2023/11/16 03:53:58;;;;;;;4.73;2.30;;;8.50;99.90;;;;;;5078378;28;20442;-52
2023/11/16 03:56:29;;;;;;;5.10;2.67;;;8.50;99.90;;;;;;5076110;28;20519;-56
2023/11/16 03:58:55;;;;;;;3.33;1.93;;;8.50;99.90;;;;;;5077332;28;20440;-57
2023/11/16 04:01:22;;;;;;;2.53;2.33;;;8.50;99.90;;;;;;5076458;28;20510;-58
2023/11/16 04:03:49;;;;;;;4.53;2.47;;;8.60;99.90;;;;;;5076622;28;20458;-56
2023/11/16 04:06:19;;;;;;;3.60;2.47;;;8.60;99.90;;;;;;5075974;28;20455;-58
2023/11/16 04:08:48;;;;;;;2.60;2.07;;;8.60;99.90;;;;;;5075818;28;20482;-56
2023/11/16 04:11:17;;;;;;;5.47;2.77;;;8.60;99.90;;;;;;5075768;28;20743;-59
2023/11/16 04:13:44;;;;;;;4.13;2.40;;;8.60;99.90;;;;;;5075308;28;20494;-57
2023/11/16 04:16:23;;;;;;;8.90;2.93;;;8.60;99.90;;;;;;5075284;28;20404;-58
2023/11/16 04:18:52;;;;;;;7.97;3.10;;;8.60;99.90;;;;;;5075604;28;20419;-60
2023/11/16 04:21:19;;;;;;;6.70;2.93;;;8.60;99.90;;;;;;5075912;28;20491;-57
2023/11/16 04:23:52;;;;;;;2.30;2.10;;;8.60;99.90;;;;;;5075287;28;20447;-59
2023/11/16 04:26:20;;;;;;;10.83;3.40;;;8.60;99.90;;;;;;5074524;28;20467;-60
2023/11/16 04:28:48;;;;;;;3.40;2.70;;;8.60;99.90;;;;;;5075366;28;20451;-56
2023/11/16 04:31:15;;;;;;;16.50;3.90;;;8.60;99.90;;;;;;5075176;28;20443;-56
2023/11/16 04:33:42;;;;;;;4.30;2.80;;;8.60;99.90;;;;;;5075242;28;20514;-53
2023/11/16 04:36:10;;;;;;;3.73;2.50;;;8.60;99.90;;;;;;5075451;28;20447;-58
2023/11/16 04:38:37;;;;;;;13.03;2.43;;;8.60;99.90;;;;;;5075449;28;20531;-52
2023/11/16 04:41:09;;;;;;;4.53;2.40;;;8.60;99.90;;;;;;5075032;28;20443;-52
2023/11/16 04:43:36;;;;;;;9.30;2.50;;;8.60;99.90;;;;;;5075062;28;20486;-58
2023/11/16 04:46:05;;;;;;;6.10;2.90;;;8.50;99.90;;;;;;5074165;28;20452;-58
2023/11/16 04:48:33;;;;;;;5.10;2.43;;;8.50;99.90;;;;;;5074976;28;20435;-57
2023/11/16 04:51:01;;;;;;;4.93;2.23;;;8.60;99.90;;;;;;5074292;28;20554;-59
2023/11/16 04:53:28;;;;;;;3.90;2.27;;;8.60;99.90;;;;;;5074450;28;20453;-60
2023/11/16 04:55:57;;;;;;;5.73;2.80;;;8.60;99.90;;;;;;5075087;28;20446;-60
2023/11/16 04:58:25;;;;;;;2.70;2.20;;;8.60;99.90;;;;;;5074634;28;20443;-59
2023/11/16 05:00:52;;;;;;;9.30;3.33;;;8.60;99.90;;;;;;5075161;28;20435;-57
2023/11/16 05:03:19;;;;;;;3.60;2.30;;;8.60;99.90;;;;;;5074959;28;20487;-56
2023/11/16 05:05:46;;;;;;;5.10;2.60;;;8.50;99.90;;;;;;5075044;28;20461;-59
2023/11/16 05:08:13;;;;;;;4.07;2.50;;;8.50;99.90;;;;;;5075057;28;20451;-59
2023/11/16 05:10:40;;;;;;;9.53;2.80;;;8.40;99.90;;;;;;5074952;28;20435;-58
2023/11/16 05:13:07;;;;;;;2.30;2.10;;;8.40;99.90;;;;;;5074732;28;20450;-58
2023/11/16 05:15:35;;;;;;;4.73;2.97;;;8.40;99.90;;;;;;5074660;28;20470;-55
2023/11/16 05:18:04;;;;;;;9.10;2.27;;;8.40;99.90;;;;;;5074764;28;20447;-57
2023/11/16 05:20:31;;;;;;;3.90;2.20;;;8.40;99.90;;;;;;5074257;28;20475;-58
2023/11/16 05:22:58;;;;;;;3.83;2.33;;;8.40;99.90;;;;;;5074800;28;20489;-57
2023/11/16 05:25:25;;;;;;;3.63;2.30;;;8.40;99.90;;;;;;5074656;28;20454;-60
2023/11/16 05:27:52;;;;;;;4.43;2.70;;;8.40;99.90;;;;;;5074569;28;20420;-59
2023/11/16 05:30:19;;;;;;;4.33;2.63;;;8.40;99.90;;;;;;5074392;28;20432;-57
2023/11/16 05:32:47;;;;;;;3.80;2.40;;;8.40;99.90;;;;;;5074774;28;20469;-60
2023/11/16 05:35:14;;;;;;;5.30;2.87;;;8.40;99.90;;;;;;5074820;28;20423;-61
2023/11/16 05:37:41;;;;;;;5.17;2.40;;;8.50;99.90;;;;;;5075009;28;20516;-55
2023/11/16 05:40:07;;;;;;;6.63;2.77;;;8.50;99.90;;;;;;5075702;28;20450;-56
2023/11/16 05:42:34;;;;;;;2.80;2.40;;;8.50;99.90;;;;;;5075337;28;20475;-54
2023/11/16 05:45:02;;;;;;;13.80;3.00;;;8.50;99.90;;;;;;5076070;28;20459;-55
2023/11/16 05:47:29;;;;;;;3.87;2.43;;;8.50;99.90;;;;;;5076420;28;20424;-53
2023/11/16 05:49:58;;;;;;;4.13;2.70;;;8.50;99.90;;;;;;5076291;28;20511;-57
2023/11/16 05:52:26;;;;;;;7.90;4.00;;;8.60;99.90;;;;;;5075721;28;20450;-58
2023/11/16 05:54:53;;;;;;;3.80;2.30;;;8.60;99.90;;;;;;5076170;28;20502;-58
2023/11/16 05:57:20;;;;;;;5.30;2.57;;;8.60;99.90;;;;;;5075980;28;20441;-59
2023/11/16 05:59:47;;;;;;;5.97;2.37;;;8.60;99.90;;;;;;5076699;28;20494;-60
2023/11/16 06:02:14;;;;;;;7.80;3.07;;;8.60;99.90;;;;;;5079240;28;20501;-58
2023/11/16 06:04:42;;;;;;;6.70;2.80;;;8.60;99.90;;;;;;5079722;28;20447;-59
2023/11/16 06:07:10;;;;;;;7.10;2.90;;;8.60;99.90;;;;;;5078184;28;20477;-58
2023/11/16 06:09:37;;;;;;;4.73;2.53;;;8.60;99.90;;;;;;5078237;28;20447;-57
2023/11/16 06:12:05;;;;;;;4.93;2.63;;;8.60;99.90;;;;;;5077997;28;20438;-60
2023/11/16 06:14:34;;;;;;;3.87;2.47;;;8.60;99.90;;;;;;5077741;28;20439;-58
2023/11/16 06:17:02;;;;;;;3.03;2.17;;;8.60;99.90;;;;;;5078618;28;20515;-58
2023/11/16 06:19:29;;;;;;;6.27;2.50;;;8.60;99.90;;;;;;5078339;28;20427;-61
2023/11/16 06:21:55;;;;;;;4.80;3.10;;;8.60;99.90;;;;;;5078133;28;20459;-57
2023/11/16 06:24:24;;;;;;;5.30;2.77;;;8.60;99.90;;;;;;5078151;28;20430;-56
2023/11/16 06:26:50;;;;;;;7.03;2.57;;;8.50;99.90;;;;;;5078107;28;20450;-59
2023/11/16 06:29:17;;;;;;;4.67;2.20;;;8.60;99.90;;;;;;5077791;28;20497;-55
2023/11/16 06:31:44;;;;;;;3.70;2.20;;;8.70;99.90;;;;;;5077772;28;20447;-57
2023/11/16 06:34:12;;;;;;;3.27;2.33;;;8.70;99.90;;;;;;5077572;28;20510;-51
2023/11/16 06:36:41;;;;;;;3.07;2.10;;;8.80;99.90;;;;;;5077369;28;20451;-54
2023/11/16 06:39:08;;;;;;;11.17;3.53;;;8.90;99.90;;;;;;5077727;28;20467;-57
2023/11/16 06:41:36;;;;;;;4.90;2.80;;;8.90;99.90;;;;;;5077527;28;20444;-58
2023/11/16 06:44:07;;;;;;;10.83;3.83;;;8.90;99.90;;;;;;5077236;28;20457;-55
2023/11/16 06:46:34;;;;;;;4.13;2.70;;;9.00;99.90;;;;;;5077614;28;20419;-54
2023/11/16 06:49:02;;;;;;;4.57;2.20;;;9.00;99.90;;;;;;5077089;28;20502;-54
2023/11/16 06:51:28;;;;;;;3.10;2.40;;;9.00;99.90;;;;;;5077305;28;20487;-53
2023/11/16 06:53:56;;;;;;;7.40;2.10;;;9.00;99.90;;;;;;5077221;28;20474;-55
2023/11/16 06:56:27;;;;;;;5.40;2.33;;;9.10;99.90;;;;;;5077384;28;20472;-52
2023/11/16 06:58:55;;;;;;;3.97;2.37;;;9.10;99.90;;;;;;5077206;28;20451;-55
2023/11/16 07:01:22;;;;;;;5.40;2.30;;;9.10;99.90;;;;;;5077770;28;20507;-52
2023/11/16 07:03:49;;;;;;;4.37;2.27;;;9.10;99.90;;;;;;5077067;28;20497;-59
2023/11/16 07:06:18;;;;;;;7.20;2.40;;;9.00;99.90;;;;;;5078114;28;20452;-56
2023/11/16 07:08:46;;;;;;;5.03;2.50;;;9.00;99.90;;;;;;5077561;28;20451;-55
2023/11/16 07:11:15;;;;;;;4.07;1.90;;;9.00;99.90;;;;;;5077039;28;20442;-55
2023/11/16 07:13:41;;;;;;;3.33;1.77;;;9.00;99.90;;;;;;5077141;28;20572;-54
2023/11/16 07:16:10;;;;;;;2.77;2.10;;;9.10;99.90;;;;;;5078238;28;20423;-54
2023/11/16 07:18:37;;;;;;;7.90;2.43;;;9.00;99.90;;;;;;5078316;28;20440;-61
2023/11/16 07:21:04;;;;;;;5.63;2.30;;;9.10;99.90;;;;;;5077967;28;20443;-60
2023/11/16 07:23:32;;;;;;;8.10;2.63;;;9.00;99.90;;;;;;5078161;28;20479;-60
2023/11/16 07:26:00;;;;;;;3.60;2.47;;;9.00;99.90;;;;;;5078037;28;20443;-60
2023/11/16 07:28:27;;;;;;;4.90;2.83;;;9.00;99.90;;;;;;5077204;28;20489;-58
2023/11/16 07:30:54;;;;;;;4.63;1.87;;;9.00;99.90;;;;;;5076603;28;20503;-59
2023/11/16 07:33:24;;;;;;;4.80;1.87;;;9.00;99.90;;;;;;5077019;28;20463;-61
2023/11/16 07:35:53;;;;;;;2.80;2.43;;;9.00;99.90;;;;;;5076249;28;20473;-59
2023/11/16 07:38:21;;;;;;;3.90;1.97;;;9.00;99.90;;;;;;5076138;28;20468;-58
2023/11/16 07:40:48;;;;;;;2.07;1.60;;;9.00;99.90;;;;;;5075745;28;20547;-60
2023/11/16 07:43:15;;;;;;;2.53;2.23;;;9.10;99.90;;;;;;5076159;28;20665;-60
2023/11/16 07:45:43;;;;;;;3.10;1.93;;;9.10;99.90;;;;;;5075800;28;20471;-59
2023/11/16 07:48:13;;;;;;;4.80;1.80;;;9.10;99.90;;;;;;5076453;28;20455;-60
2023/11/16 07:50:42;;;;;;;4.33;2.57;;;9.10;99.90;;;;;;5075985;28;20475;-57
2023/11/16 07:53:10;;;;;;;8.20;2.93;;;9.10;99.90;;;;;;5075611;28;20467;-60
2023/11/16 07:55:39;;;;;;;9.90;4.03;;;9.10;99.90;;;;;;5075960;28;20466;-58
2023/11/16 07:58:12;;;;;;;3.13;2.60;;;9.00;99.90;;;;;;5076731;28;20450;-59
2023/11/16 08:00:55;;;;;;;2.60;1.90;;;9.00;99.90;;;;;;5075969;28;20474;-58
2023/11/16 08:06:12;;;;;;;4.40;2.00;;;8.90;99.90;;;;;;5076061;28;20450;-58
2023/11/16 08:08:41;;;;;;;1.97;1.57;;;8.90;99.90;;;;;;5075589;28;20452;-59
2023/11/16 08:11:08;;;;;;;5.33;2.03;;;8.90;99.90;;;;;;5075979;28;20502;-58
2023/11/16 08:13:35;;;;;;;2.60;1.80;;;8.90;99.90;;;;;;5075907;28;20435;-59
2023/11/16 08:16:04;;;;;;;4.70;1.70;;;9.00;99.90;;;;;;5075280;28;20479;-57
2023/11/16 08:18:31;;;;;;;5.00;1.80;;;8.90;99.90;;;;;;5075568;28;20491;-60
2023/11/16 08:20:59;;;;;;;4.20;2.40;;;8.90;99.90;;;;;;5075543;28;20466;-60
2023/11/16 08:23:29;;;;;;;2.27;1.83;;;8.80;99.90;;;;;;5074793;28;20537;-59
2023/11/16 08:25:58;;;;;;;6.20;2.17;;;8.80;99.90;;;;;;5075231;28;20807;-58
2023/11/16 08:28:28;;;;;;;6.90;2.20;;;8.80;99.90;;;;;;5074724;28;20483;-58
2023/11/16 08:30:58;;;;;;;3.80;2.50;;;8.80;99.90;;;;;;5075860;28;20495;-60
2023/11/16 08:33:25;;;;;;;6.10;2.03;;;8.80;99.90;;;;;;5075442;28;20443;-60
2023/11/16 08:35:53;;;;;;;4.60;1.80;;;8.80;99.90;;;;;;5075308;28;20515;-58
2023/11/16 08:38:25;;;;;;;7.73;2.10;;;8.90;99.90;;;;;;5075138;28;20470;-61
2023/11/16 08:40:54;;;;;;;1.90;1.80;;;9.00;99.90;;;;;;5075250;28;20428;-60
2023/11/16 08:43:27;;;;;;;4.10;3.03;;;9.10;99.90;;;;;;5074667;28;20478;-59
2023/11/16 08:45:55;;;;;;;3.80;2.40;;;9.10;99.90;;;;;;5074734;28;20478;-60
2023/11/16 08:48:33;;;;;;;4.50;2.60;;;9.10;99.90;;;;;;5075000;28;20451;-60
2023/11/16 08:51:04;;;;;;;3.50;2.00;;;9.10;99.90;;;;;;5074958;28;20523;-59
2023/11/16 08:53:32;;;;;;;3.93;2.30;;;9.10;99.90;;;;;;5075494;28;20462;-59
2023/11/16 08:56:03;;;;;;;3.43;2.13;;;9.00;99.90;;;;;;5075218;28;20459;-60
2023/11/16 08:58:34;;;;;;;9.97;2.63;;;9.00;99.90;;;;;;5069711;28;20428;-59
2023/11/16 09:01:03;;;;;;;4.80;1.60;;;9.10;99.90;;;;;;5072288;28;20463;-57
2023/11/16 09:03:33;;;;;;;5.93;2.60;;;9.10;99.90;;;;;;5060778;28;20467;-58
2023/11/16 09:06:02;;;;;;;5.10;1.87;;;9.10;99.90;;;;;;5055053;28;20889;-60
2023/11/16 09:08:34;;;;;;;2.30;1.40;;;9.20;99.90;;;;;;5055641;28;20462;-60
2023/11/16 09:11:03;;;;;;;3.73;2.00;;;9.20;99.90;;;;;;5054586;28;20432;-61
2023/11/16 09:13:30;;;;;;;7.50;1.67;;;9.20;99.90;;;;;;5054423;28;20958;-60
2023/11/16 09:15:57;;;;;;;3.97;2.07;;;9.20;99.90;;;;;;5054438;28;21001;-60
2023/11/16 09:18:26;;;;;;;3.60;1.80;;;9.30;99.90;;;;;;5054628;28;20470;-62
2023/11/16 09:20:56;;;;;;;5.30;1.50;;;9.30;99.90;;;;;;5055263;28;20511;-59
2023/11/16 09:23:24;;;;;;;6.67;1.80;;;9.20;99.90;;;;;;5054297;28;20478;-59
2023/11/16 09:25:51;;;;;;;3.60;2.03;;;9.20;99.90;;;;;;5055114;28;20977;-59
2023/11/16 09:28:20;;;;;;;2.70;1.50;;;9.20;99.90;;;;;;5054632;28;20522;-62
2023/11/16 09:30:48;;;;;;;2.10;1.50;;;9.20;99.90;;;;;;5054315;28;20478;-61
2023/11/16 09:33:15;;;;;;;6.20;3.33;;;9.20;99.90;;;;;;5054801;28;20523;-59
2023/11/16 09:35:42;;;;;;;5.10;1.57;;;9.20;99.90;;;;;;5058332;28;20467;-61
2023/11/16 09:38:08;;;;;;;3.53;1.83;;;9.30;99.90;;;;;;5058658;28;20527;-61
2023/11/16 09:40:36;;;;;;;6.73;1.60;;;9.30;99.90;;;;;;5058547;28;20447;-61
2023/11/16 09:43:16;;;;;;;3.10;1.47;;;9.30;99.90;;;;;;5058390;28;20576;-60
2023/11/16 09:45:48;;;;;;;4.70;1.70;;;9.30;99.90;;;;;;5058230;28;20432;-59
2023/11/16 09:48:17;;;;;;;5.23;1.43;;;9.40;99.90;;;;;;5058191;28;20467;-58
2023/11/16 09:50:48;;;;;;;2.67;1.33;;;9.40;99.90;;;;;;5058136;28;20996;-59
2023/11/16 09:53:17;;;;;;;2.10;1.30;;;9.50;99.90;;;;;;5058123;28;20785;-61
2023/11/16 09:55:49;;;;;;;2.60;2.00;;;9.50;99.90;;;;;;5058363;28;20446;-60
2023/11/16 09:58:21;;;;;;;2.53;1.57;;;9.70;99.90;;;;;;5058311;28;20475;-61
2023/11/16 10:00:55;;;;;;;2.57;1.27;;;9.90;99.90;;;;;;5058158;28;20427;-58
2023/11/16 10:03:25;;;;;;;2.50;1.60;;;9.90;99.90;;;;;;5057785;28;21005;-61
2023/11/16 10:05:55;;;;;;;3.37;1.10;;;10.00;99.90;;;;;;5058165;28;20455;-59
2023/11/16 10:08:23;;;;;;;2.13;1.57;;;10.00;99.90;;;;;;5057855;28;20494;-59
2023/11/16 10:10:55;;;;;;;5.40;1.30;;;10.20;99.90;;;;;;5058028;28;20447;-61
2023/11/16 10:13:23;;;;;;;2.53;1.40;;;10.40;99.90;;;;;;5057629;28;20435;-60
2023/11/16 10:15:52;;;;;;;3.60;1.60;;;10.60;99.90;;;;;;5057495;28;20470;-59
2023/11/16 10:18:19;;;;;;;1.97;1.13;;;11.00;99.90;;;;;;5065455;28;20469;-59
2023/11/16 10:20:46;;;;;;;6.27;2.30;;;11.50;99.90;;;;;;5081919;28;20451;-52
2023/11/16 10:23:13;;;;;;;2.67;1.37;;;11.50;99.90;;;;;;5081863;28;20459;-51
2023/11/16 10:25:40;;;;;;;3.20;0.90;;;11.40;99.90;;;;;;5081873;28;20423;-53
2023/11/16 10:28:15;;;;;;;1.00;0.70;;;11.20;99.90;;;;;;5081749;28;20459;-56
2023/11/16 10:30:46;;;;;;;3.10;0.77;;;10.90;99.90;;;;;;5081869;28;20478;-49
2023/11/16 10:33:17;;;;;;;1.00;0.70;;;10.60;99.90;;;;;;5081806;28;20431;-51
2023/11/16 10:35:49;;;;;;;1.40;0.80;;;10.20;99.90;;;;;;5081815;28;20490;-52
2023/11/16 10:38:17;;;;;;;1.20;0.93;;;9.80;99.90;;;;;;5081720;28;20475;-54
2023/11/16 10:40:47;;;;;;;1.83;0.70;;;9.50;99.90;;;;;;5081679;28;20400;-54
2023/11/16 10:43:25;;;;;;;0.80;0.50;;;9.40;99.90;;;;;;5081412;28;20469;-58
2023/11/16 10:46:00;;;;;;;0.90;0.80;;;9.20;99.90;;;;;;5080716;28;20446;-52
2023/11/16 10:48:31;;;;;;;1.10;1.00;;;9.10;99.90;;;;;;5081471;28;20487;-51
2023/11/16 10:51:01;;;;;;;2.27;0.70;;;9.10;99.90;;;;;;5081434;28;20428;-51
2023/11/16 10:53:37;;;;;;;2.13;1.00;;;9.20;99.90;;;;;;5081379;28;20442;-51
2023/11/16 10:56:07;;;;;;;1.60;0.80;;;9.30;99.90;;;;;;5081432;28;20415;-47
2023/11/16 10:58:39;;;;;;;1.07;0.70;;;9.40;99.90;;;;;;5081322;28;20455;-45
2023/11/16 11:01:10;;;;;;;2.10;0.80;;;9.50;99.90;;;;;;5080460;28;20415;-52
2023/11/16 11:03:39;;;;;;;2.80;1.10;;;9.70;99.90;;;;;;5081048;28;20228;-47
2023/11/16 11:06:12;;;;;;;1.20;0.80;;;9.90;99.90;;;;;;5081139;28;20410;-49
2023/11/16 11:08:40;;;;;;;0.90;0.70;;;10.00;99.90;;;;;;5081215;28;20481;-46
2023/11/16 11:11:10;;;;;;;1.10;0.70;;;10.00;99.90;;;;;;5081010;28;20437;-49
2023/11/16 11:13:39;;;;;;;0.90;0.60;;;9.90;99.90;;;;;;5081091;28;20403;-52
2023/11/16 11:16:12;;;;;;;2.07;1.00;;;9.80;99.90;;;;;;5080856;28;20448;-46
2023/11/16 11:18:48;;;;;;;1.20;0.70;;;9.70;99.90;;;;;;5081008;28;20429;-43
2023/11/16 11:21:19;;;;;;;2.27;0.70;;;9.70;99.90;;;;;;5080641;28;20470;-48
2023/11/16 11:23:59;;;;;;;1.83;0.90;;;9.70;99.90;;;;;;5080646;28;20439;-48
2023/11/16 11:26:26;;;;;;;1.87;0.60;;;9.70;99.90;;;;;;5080634;28;20435;-46
2023/11/16 11:28:54;;;;;;;1.53;0.80;;;9.70;99.90;;;;;;5080764;28;20426;-48
2023/11/16 11:31:35;;;;;;;1.17;0.60;;;9.60;99.90;;;;;;5080493;28;20404;-49
2023/11/16 11:34:10;;;;;;;0.90;0.67;;;9.70;99.90;;;;;;5080705;28;20403;-51
2023/11/16 11:36:41;;;;;;;0.90;0.60;;;9.80;99.90;;;;;;5080743;28;20404;-49
2023/11/16 11:39:14;;;;;;;2.17;0.90;;;9.80;99.90;;;;;;5080489;28;20442;-50
2023/11/16 11:41:48;;;;;;;2.70;1.07;;;9.90;99.90;;;;;;5080634;28;20412;-48
2023/11/16 11:44:15;;;;;;;1.57;0.77;;;10.00;99.90;;;;;;5080201;28;20581;-46
2023/11/16 11:46:42;;;;;;;1.17;0.67;;;10.10;99.90;;;;;;5080320;28;20439;-52
2023/11/16 11:49:15;;;;;;;1.50;0.70;;;10.20;99.90;;;;;;5080259;28;20458;-54
2023/11/16 11:51:45;;;;;;;0.97;0.83;;;10.20;99.90;;;;;;5080360;28;20420;-50
2023/11/16 11:54:13;;;;;;;3.87;0.70;;;10.20;99.90;;;;;;5080166;28;20407;-44
2023/11/16 11:56:45;;;;;;;2.20;0.80;;;10.20;99.90;;;;;;5079599;28;20406;-46
2023/11/16 11:59:12;;;;;;;2.40;0.70;;;10.30;99.90;;;;;;5079863;28;20410;-46
2023/11/16 12:01:39;;;;;;;1.93;0.60;;;10.30;99.90;;;;;;5080002;28;20467;-50
2023/11/16 12:04:08;;;;;;;0.90;0.70;;;10.30;99.90;;;;;;5079981;28;20443;-52
2023/11/16 12:06:36;;;;;;;1.43;0.70;;;10.40;99.90;;;;;;5080077;28;20442;-54
2023/11/16 12:09:06;;;;;;;1.10;0.70;;;10.40;99.90;;;;;;5079970;28;20470;-54
2023/11/16 12:11:36;;;;;;;0.87;0.67;;;10.40;99.90;;;;;;5079912;28;20463;-57
2023/11/16 12:14:04;;;;;;;1.30;0.90;;;10.30;99.90;;;;;;5079831;28;20400;-55
2023/11/16 12:16:32;;;;;;;1.30;0.77;;;10.10;99.90;;;;;;5079809;28;20407;-51
2023/11/16 12:19:00;;;;;;;0.90;0.53;;;10.00;99.90;;;;;;5079663;28;20423;-49
2023/11/16 12:21:27;;;;;;;1.77;0.80;;;9.90;99.90;;;;;;5079768;28;20425;-51
2023/11/16 12:24:02;;;;;;;1.90;1.00;;;9.80;99.90;;;;;;5079627;28;20498;-57
2023/11/16 12:26:34;;;;;;;2.00;0.90;;;9.70;99.90;;;;;;5079707;28;20403;-48
2023/11/16 12:29:11;;;;;;;1.27;1.07;;;9.60;99.90;;;;;;5079623;28;20436;-54
2023/11/16 12:31:39;;;;;;;1.17;0.70;;;9.60;99.90;;;;;;5079379;28;20410;-55
2023/11/16 12:34:07;;;;;;;1.30;0.67;;;9.50;99.90;;;;;;5078991;28;20439;-50
2023/11/16 12:36:35;;;;;;;0.90;0.60;;;9.50;99.90;;;;;;5079138;28;20415;-52
2023/11/16 12:39:05;;;;;;;1.73;0.80;;;9.50;99.90;;;;;;5079194;28;20420;-52
2023/11/16 12:41:32;;;;;;;1.00;0.67;;;9.50;99.90;;;;;;5079122;28;20408;-57
2023/11/16 12:44:00;;;;;;;1.30;0.70;;;9.40;99.90;;;;;;5078868;28;20518;-51
2023/11/16 12:46:27;;;;;;;0.90;0.70;;;9.40;99.90;;;;;;5078887;28;20499;-54
2023/11/16 12:48:55;;;;;;;1.40;0.70;;;9.40;99.90;;;;;;5079018;28;20415;-54
2023/11/16 12:51:27;;;;;;;1.97;0.77;;;9.40;99.90;;;;;;5079249;28;20419;-53
2023/11/16 12:53:54;;;;;;;0.90;0.70;;;9.60;99.90;;;;;;5079201;28;20407;-57
2023/11/16 12:56:22;;;;;;;1.20;0.77;;;9.60;99.90;;;;;;5079190;28;20423;-56
2023/11/16 12:58:49;;;;;;;3.10;0.97;;;9.50;99.90;;;;;;5079025;28;20455;-55
2023/11/16 13:01:16;;;;;;;3.67;1.83;;;9.50;99.90;;;;;;5079083;28;20414;-49
2023/11/16 13:03:44;;;;;;;1.27;0.60;;;9.40;99.90;;;;;;5079058;28;20464;-53
2023/11/16 13:06:14;;;;;;;1.37;1.27;;;9.30;99.90;;;;;;5079063;28;20404;-52